createdAt,value
2023-04-27T00:01:50.765Z,8.50
2023-04-27T00:04:18.311Z,8.40
2023-04-27T00:06:45.465Z,8.30
2023-04-27T00:09:12.668Z,8.20
2023-04-27T00:11:39.874Z,8.20
2023-04-27T00:14:06.967Z,8.20
2023-04-27T00:16:35.126Z,8.20
2023-04-27T00:19:02.617Z,8.20
2023-04-27T00:21:29.654Z,8.20
2023-04-27T00:23:56.779Z,8.20
2023-04-27T00:26:23.932Z,8.10
2023-04-27T00:28:50.861Z,8.10
2023-04-27T00:31:17.904Z,8.00
2023-04-27T00:33:44.940Z,7.90
2023-04-27T00:36:11.957Z,7.90
2023-04-27T00:38:38.903Z,7.80
2023-04-27T00:41:06.797Z,7.70
2023-04-27T00:43:34.266Z,7.70
2023-04-27T00:46:01.447Z,7.60
2023-04-27T00:48:28.506Z,7.60
2023-04-27T00:50:55.760Z,7.60
2023-04-27T00:53:22.701Z,7.50
2023-04-27T00:55:49.694Z,7.50
2023-04-27T00:58:16.707Z,7.40
2023-04-27T01:00:43.748Z,7.50
2023-04-27T01:03:10.942Z,7.50
2023-04-27T01:05:38.357Z,7.50
2023-04-27T01:08:05.547Z,7.50
2023-04-27T01:10:32.503Z,7.50
2023-04-27T01:12:59.669Z,7.40
2023-04-27T01:15:27.054Z,7.30
2023-04-27T01:18:01.053Z,7.30
2023-04-27T01:20:30.671Z,7.30
2023-04-27T01:22:57.890Z,7.30
2023-04-27T01:25:25.111Z,7.30
2023-04-27T01:27:52.282Z,7.30
2023-04-27T01:30:19.334Z,7.30
2023-04-27T01:32:46.519Z,7.20
2023-04-27T01:35:13.525Z,7.20
2023-04-27T01:37:40.617Z,7.10
2023-04-27T01:40:08.143Z,7.00
2023-04-27T01:42:35.143Z,7.00
2023-04-27T01:45:02.105Z,7.00
2023-04-27T01:47:29.105Z,6.90
2023-04-27T01:49:56.173Z,6.90
2023-04-27T01:52:23.607Z,6.80
2023-04-27T01:54:50.575Z,6.80
2023-04-27T01:57:18.023Z,6.70
2023-04-27T01:59:45.035Z,6.70
2023-04-27T02:02:12.449Z,6.70
2023-04-27T02:04:39.632Z,6.60
2023-04-27T02:07:06.961Z,6.70
2023-04-27T02:09:33.897Z,6.70
2023-04-27T02:12:00.802Z,6.70
2023-04-27T02:14:27.757Z,6.60
2023-04-27T02:16:54.743Z,6.50
2023-04-27T02:19:22.239Z,6.60
2023-04-27T02:21:49.203Z,6.60
2023-04-27T02:24:16.247Z,6.60
2023-04-27T02:26:43.271Z,6.50
2023-04-27T02:29:10.732Z,6.40
2023-04-27T02:31:38.437Z,6.40
2023-04-27T02:34:05.390Z,6.40
2023-04-27T02:36:32.634Z,6.30
2023-04-27T02:38:59.675Z,6.40
2023-04-27T02:41:28.779Z,6.40
2023-04-27T02:43:55.714Z,6.40
2023-04-27T02:46:22.672Z,6.30
2023-04-27T02:48:49.686Z,6.30
2023-04-27T02:51:17.024Z,6.40
2023-04-27T02:53:43.922Z,6.40
2023-04-27T02:56:10.911Z,6.40
2023-04-27T02:58:37.877Z,6.50
2023-04-27T03:01:05.177Z,6.40
2023-04-27T03:03:32.319Z,6.40
2023-04-27T03:05:59.436Z,6.30
2023-04-27T03:08:26.497Z,6.30
2023-04-27T03:10:53.611Z,6.20
2023-04-27T03:13:20.749Z,6.10
2023-04-27T03:15:47.717Z,6.10
2023-04-27T03:18:14.676Z,6.10
2023-04-27T03:20:41.683Z,6.00
2023-04-27T03:23:08.727Z,6.00
2023-04-27T03:25:35.796Z,6.10
2023-04-27T03:28:02.818Z,6.10
2023-04-27T03:30:29.872Z,6.10
2023-04-27T03:32:57.496Z,6.10
2023-04-27T03:35:24.509Z,6.10
2023-04-27T03:37:53.841Z,6.00
2023-04-27T03:40:21.066Z,6.00
2023-04-27T03:42:48.013Z,6.00
2023-04-27T03:45:16.833Z,6.00
2023-04-27T03:47:43.967Z,5.90
2023-04-27T03:50:11.052Z,5.90
2023-04-27T03:52:38.102Z,6.00
2023-04-27T03:55:05.919Z,5.90
2023-04-27T03:57:32.890Z,5.90
2023-04-27T03:59:59.883Z,5.90
2023-04-27T04:02:27.269Z,5.80
2023-04-27T04:04:54.512Z,5.70
2023-04-27T04:07:21.606Z,5.70
2023-04-27T04:09:48.524Z,5.60
2023-04-27T04:12:15.501Z,5.60
2023-04-27T04:14:43.257Z,5.50
2023-04-27T04:17:11.273Z,5.50
2023-04-27T04:19:38.238Z,5.50
2023-04-27T04:22:05.292Z,5.50
2023-04-27T04:24:32.223Z,5.50
2023-04-27T04:26:59.246Z,5.40
2023-04-27T04:29:26.211Z,5.50
2023-04-27T04:31:53.180Z,5.50
2023-04-27T04:34:20.308Z,5.50
2023-04-27T04:36:53.470Z,5.60
2023-04-27T04:39:23.450Z,5.50
2023-04-27T04:41:50.460Z,5.50
2023-04-27T04:44:20.519Z,5.50
2023-04-27T04:46:47.688Z,5.60
2023-04-27T04:49:18.324Z,5.60
2023-04-27T04:51:45.901Z,5.70
2023-04-27T04:54:12.936Z,5.70
2023-04-27T04:56:39.972Z,5.80
2023-04-27T04:59:07.059Z,5.90
2023-04-27T05:01:34.108Z,5.90
2023-04-27T05:04:01.520Z,6.00
2023-04-27T05:06:28.602Z,6.00
2023-04-27T05:08:55.590Z,6.10
2023-04-27T05:11:22.744Z,6.10
2023-04-27T05:13:49.688Z,6.20
2023-04-27T05:16:16.730Z,6.20
2023-04-27T05:18:43.672Z,6.30
2023-04-27T05:21:17.561Z,6.30
2023-04-27T05:23:44.537Z,6.30
2023-04-27T05:26:15.579Z,6.40
2023-04-27T05:28:42.721Z,6.50
2023-04-27T05:31:09.741Z,6.50
2023-04-27T05:33:36.856Z,6.60
2023-04-27T05:36:03.942Z,6.60
2023-04-27T05:38:30.874Z,6.70
2023-04-27T05:41:01.583Z,6.70
2023-04-27T05:43:28.585Z,6.80
2023-04-27T05:45:56.340Z,6.80
2023-04-27T05:48:23.287Z,6.90
2023-04-27T05:50:50.272Z,7.00
2023-04-27T05:53:17.556Z,7.10
2023-04-27T05:55:44.577Z,7.20
2023-04-27T05:58:11.832Z,7.20
2023-04-27T06:00:39.149Z,7.30
2023-04-27T06:03:06.345Z,7.40
2023-04-27T06:05:34.953Z,7.50
2023-04-27T06:08:02.019Z,7.60
2023-04-27T06:10:29.133Z,7.70
2023-04-27T06:12:56.110Z,7.70
2023-04-27T06:15:23.094Z,7.80
2023-04-27T06:17:50.087Z,7.90
2023-04-27T06:20:17.158Z,8.00
2023-04-27T06:22:44.147Z,8.10
2023-04-27T06:25:11.497Z,8.20
2023-04-27T06:27:38.536Z,8.30
2023-04-27T06:30:06.632Z,8.30
2023-04-27T06:32:34.059Z,8.40
2023-04-27T06:35:01.085Z,8.50
2023-04-27T06:37:28.060Z,8.60
2023-04-27T06:39:54.982Z,8.60
2023-04-27T06:42:22.036Z,8.70
2023-04-27T06:44:49.077Z,8.80
2023-04-27T06:47:16.227Z,8.90
2023-04-27T06:49:43.524Z,8.90
2023-04-27T06:52:10.663Z,9.00
2023-04-27T06:54:37.831Z,9.10
2023-04-27T06:57:05.005Z,9.20
2023-04-27T06:59:32.255Z,9.30
2023-04-27T07:01:59.348Z,9.40
2023-04-27T07:04:26.764Z,9.50
2023-04-27T07:06:54.012Z,9.60
2023-04-27T07:11:53.354Z,9.70
2023-04-27T07:14:20.528Z,9.80
2023-04-27T07:16:48.323Z,9.90
2023-04-27T07:19:18.306Z,9.90
2023-04-27T07:21:45.950Z,10.00
2023-04-27T07:24:12.886Z,10.10
2023-04-27T07:26:39.823Z,10.20
2023-04-27T07:29:18.768Z,10.30
2023-04-27T07:31:52.165Z,10.40
2023-04-27T07:34:19.556Z,10.50
2023-04-27T07:36:46.528Z,10.60
2023-04-27T07:39:13.639Z,10.70
2023-04-27T07:41:41.386Z,10.70
2023-04-27T07:44:09.035Z,10.80
2023-04-27T07:46:35.992Z,10.80
2023-04-27T07:49:03.033Z,10.90
2023-04-27T07:51:30.033Z,11.00
2023-04-27T07:53:57.014Z,11.10
2023-04-27T07:56:24.075Z,11.20
2023-04-27T07:58:51.146Z,11.30
2023-04-27T08:01:20.843Z,11.40
2023-04-27T08:03:48.574Z,11.50
2023-04-27T08:06:19.717Z,11.60
2023-04-27T08:08:46.935Z,11.60
2023-04-27T08:11:13.933Z,11.70
2023-04-27T08:13:41.130Z,11.70
2023-04-27T08:16:08.208Z,11.80
2023-04-27T08:18:35.242Z,11.90
2023-04-27T08:21:02.316Z,11.90
2023-04-27T08:23:29.720Z,12.10
2023-04-27T08:25:57.031Z,12.20
2023-04-27T08:28:24.537Z,12.30
2023-04-27T08:30:52.024Z,12.40
2023-04-27T08:33:19.320Z,12.50
2023-04-27T08:35:46.470Z,12.60
2023-04-27T08:38:13.467Z,12.70
2023-04-27T08:40:43.979Z,12.70
2023-04-27T08:43:11.141Z,12.80
2023-04-27T08:45:38.187Z,12.90
2023-04-27T08:48:05.301Z,13.00
2023-04-27T08:50:32.776Z,13.20
2023-04-27T08:53:00.155Z,13.20
2023-04-27T08:55:27.143Z,13.30
2023-04-27T08:58:04.507Z,13.30
2023-04-27T09:00:38.833Z,13.30
2023-04-27T09:06:03.056Z,13.40
2023-04-27T09:08:41.648Z,13.50
2023-04-27T09:11:08.809Z,13.60
2023-04-27T09:13:37.118Z,13.60
2023-04-27T09:16:04.250Z,13.70
2023-04-27T09:18:34.391Z,13.80
2023-04-27T09:21:01.637Z,13.80
2023-04-27T09:23:32.823Z,13.80
2023-04-27T09:26:01.203Z,13.90
2023-04-27T09:28:29.025Z,14.00
2023-04-27T09:30:56.842Z,14.00
2023-04-27T09:33:24.876Z,14.00
2023-04-27T09:35:52.367Z,14.00
2023-04-27T09:38:20.536Z,14.10
2023-04-27T09:40:48.348Z,14.10
2023-04-27T09:43:15.772Z,14.10
2023-04-27T09:45:43.390Z,14.20
2023-04-27T09:48:10.764Z,14.20
2023-04-27T09:50:39.422Z,14.40
2023-04-27T09:53:07.519Z,14.40
2023-04-27T09:55:42.662Z,14.50
2023-04-27T09:58:28.125Z,14.60
2023-04-27T10:01:03.935Z,14.60
2023-04-27T10:03:33.530Z,14.70
2023-04-27T10:06:04.133Z,14.80
2023-04-27T10:08:31.230Z,15.00
2023-04-27T10:10:58.178Z,15.10
2023-04-27T10:13:26.595Z,15.30
2023-04-27T10:16:02.667Z,15.30
2023-04-27T10:18:31.370Z,15.30
2023-04-27T10:21:09.896Z,15.30
2023-04-27T10:23:45.774Z,15.40
2023-04-27T10:26:13.006Z,15.30
2023-04-27T10:28:40.500Z,15.30
2023-04-27T10:31:12.320Z,15.40
2023-04-27T10:33:43.820Z,15.30
2023-04-27T10:36:15.130Z,15.30
2023-04-27T10:38:42.342Z,15.20
2023-04-27T10:41:14.042Z,15.30
2023-04-27T10:43:41.668Z,15.40
2023-04-27T10:46:10.202Z,15.40
2023-04-27T10:48:37.880Z,15.40
2023-04-27T10:51:05.059Z,15.50
2023-04-27T10:53:36.287Z,15.60
2023-04-27T10:56:04.368Z,15.60
2023-04-27T10:58:41.526Z,15.50
2023-04-27T11:01:24.025Z,15.50
2023-04-27T11:04:01.139Z,15.30
2023-04-27T11:06:28.865Z,15.40
2023-04-27T11:08:56.340Z,15.40
2023-04-27T11:11:24.558Z,15.40
2023-04-27T11:13:53.326Z,15.50
2023-04-27T11:16:20.381Z,15.60
2023-04-27T11:18:47.471Z,15.60
2023-04-27T11:21:18.861Z,15.50
2023-04-27T11:23:45.866Z,15.50
2023-04-27T11:26:15.081Z,15.50
2023-04-27T11:28:42.730Z,15.50
2023-04-27T11:31:09.878Z,15.40
2023-04-27T11:33:37.332Z,15.50
2023-04-27T11:36:04.456Z,15.50
2023-04-27T11:38:34.681Z,15.50
2023-04-27T11:41:01.756Z,15.70
2023-04-27T11:43:28.874Z,15.90
2023-04-27T11:45:56.450Z,16.10
2023-04-27T11:48:23.927Z,16.30
2023-04-27T11:50:51.265Z,16.50
2023-04-27T11:53:19.006Z,16.80
2023-04-27T11:55:52.614Z,16.90
2023-04-27T11:58:21.325Z,17.20
2023-04-27T12:00:48.299Z,17.20
2023-04-27T12:03:15.445Z,17.30
2023-04-27T12:05:50.136Z,17.30
2023-04-27T12:08:17.681Z,17.20
2023-04-27T12:10:45.148Z,17.30
2023-04-27T12:13:12.687Z,17.30
2023-04-27T12:15:39.640Z,17.30
2023-04-27T12:18:07.309Z,17.50
2023-04-27T12:20:34.975Z,17.60
2023-04-27T12:23:02.007Z,17.80
2023-04-27T12:25:29.073Z,18.00
2023-04-27T12:27:56.226Z,17.90
2023-04-27T12:30:23.720Z,18.00
2023-04-27T12:32:51.420Z,18.00
2023-04-27T12:35:18.577Z,18.00
2023-04-27T12:37:45.702Z,18.00
2023-04-27T12:40:13.021Z,18.10
2023-04-27T12:42:40.236Z,18.20
2023-04-27T12:45:07.706Z,18.40
2023-04-27T12:50:06.026Z,18.50
2023-04-27T12:52:33.275Z,18.60
2023-04-27T12:55:00.271Z,18.60
2023-04-27T12:57:27.286Z,18.60
2023-04-27T12:59:54.363Z,18.80
2023-04-27T13:02:21.502Z,19.10
2023-04-27T13:04:49.936Z,19.30
2023-04-27T13:07:16.949Z,19.40
2023-04-27T13:09:43.908Z,19.60
2023-04-27T13:12:10.996Z,19.70
2023-04-27T13:14:37.921Z,19.70
2023-04-27T13:17:04.928Z,20.00
2023-04-27T13:19:32.151Z,20.20
2023-04-27T13:21:59.109Z,20.30
2023-04-27T13:24:26.268Z,20.40
2023-04-27T13:26:53.220Z,20.50
2023-04-27T13:29:20.137Z,20.60
2023-04-27T13:31:47.237Z,20.70
2023-04-27T13:34:14.919Z,20.60
2023-04-27T13:36:42.114Z,20.50
2023-04-27T13:39:09.152Z,20.50
2023-04-27T13:41:36.596Z,20.60
2023-04-27T13:44:03.548Z,20.50
2023-04-27T13:46:30.545Z,20.60
2023-04-27T13:48:57.626Z,20.80
2023-04-27T13:51:25.345Z,20.80
2023-04-27T13:53:52.347Z,20.60
2023-04-27T13:56:19.288Z,20.40
2023-04-27T13:58:46.830Z,20.50
2023-04-27T14:01:13.849Z,20.50
2023-04-27T14:03:43.276Z,20.40
2023-04-27T14:06:10.745Z,20.40
2023-04-27T14:08:38.201Z,20.30
2023-04-27T14:11:06.256Z,20.20
2023-04-27T14:13:33.221Z,20.30
2023-04-27T14:16:00.141Z,20.50
2023-04-27T14:18:32.169Z,20.60
2023-04-27T14:20:59.760Z,20.70
2023-04-27T14:23:26.814Z,20.70
2023-04-27T14:25:53.798Z,20.70
2023-04-27T14:28:20.783Z,20.80
2023-04-27T14:30:47.793Z,20.90
2023-04-27T14:33:14.739Z,20.80
2023-04-27T14:35:41.743Z,20.60
2023-04-27T14:38:08.943Z,20.80
2023-04-27T14:40:36.089Z,21.10
2023-04-27T14:43:03.040Z,21.20
2023-04-27T14:45:36.999Z,21.40
2023-04-27T14:48:10.841Z,21.50
2023-04-27T14:50:37.944Z,21.50
2023-04-27T14:53:04.960Z,21.20
2023-04-27T14:55:32.680Z,21.00
2023-04-27T14:57:59.734Z,21.00
2023-04-27T15:00:26.687Z,21.00
2023-04-27T15:02:54.594Z,21.00
2023-04-27T15:05:21.997Z,20.80
2023-04-27T15:07:49.142Z,20.60
2023-04-27T15:10:16.149Z,20.30
2023-04-27T15:12:43.132Z,20.30
2023-04-27T15:15:10.626Z,20.30
2023-04-27T15:17:37.768Z,20.20
2023-04-27T15:20:06.038Z,20.20
2023-04-27T15:22:33.096Z,20.10
2023-04-27T15:25:00.060Z,20.00
2023-04-27T15:27:27.042Z,19.90
2023-04-27T15:29:54.772Z,19.80
2023-04-27T15:32:24.805Z,19.60
2023-04-27T15:34:52.138Z,19.50
2023-04-27T15:37:19.245Z,19.50
2023-04-27T15:39:46.744Z,19.60
2023-04-27T15:42:14.136Z,19.60
2023-04-27T15:44:41.167Z,19.70
2023-04-27T15:47:08.315Z,19.70
2023-04-27T15:49:45.714Z,19.70
2023-04-27T15:52:21.332Z,19.70
2023-04-27T15:54:48.413Z,19.90
2023-04-27T15:57:15.392Z,19.80
2023-04-27T15:59:42.374Z,19.80
2023-04-27T16:02:09.567Z,19.90
2023-04-27T16:04:36.542Z,19.90
2023-04-27T16:07:03.571Z,20.00
2023-04-27T16:09:30.649Z,20.00
2023-04-27T16:11:57.680Z,19.90
2023-04-27T16:14:24.671Z,19.60
2023-04-27T16:16:51.790Z,19.60
2023-04-27T16:19:19.331Z,19.60
2023-04-27T16:21:47.345Z,19.40
2023-04-27T16:24:14.355Z,19.30
2023-04-27T16:26:41.296Z,19.30
2023-04-27T16:29:08.368Z,19.20
2023-04-27T16:31:35.782Z,19.20
2023-04-27T16:34:03.416Z,19.10
2023-04-27T16:36:30.717Z,19.00
2023-04-27T16:38:57.751Z,18.90
2023-04-27T16:41:24.765Z,18.80
2023-04-27T16:43:51.843Z,18.60
2023-04-27T16:46:18.925Z,18.50
2023-04-27T16:48:46.044Z,18.40
2023-04-27T16:51:13.114Z,18.30
2023-04-27T16:53:40.092Z,18.10
2023-04-27T16:56:07.175Z,18.00
2023-04-27T16:58:36.324Z,17.70
2023-04-27T17:01:03.640Z,17.50
2023-04-27T17:03:30.992Z,17.40
2023-04-27T17:05:58.035Z,17.30
2023-04-27T17:08:24.989Z,17.10
2023-04-27T17:10:52.289Z,16.90
2023-04-27T17:13:19.242Z,16.80
2023-04-27T17:15:46.366Z,16.70
2023-04-27T17:18:13.430Z,16.50
2023-04-27T17:20:42.210Z,16.50
2023-04-27T17:23:09.342Z,16.40
2023-04-27T17:25:39.341Z,16.30
2023-04-27T17:28:06.426Z,16.20
2023-04-27T17:30:33.882Z,16.10
2023-04-27T17:33:00.911Z,16.00
2023-04-27T17:35:27.980Z,16.10
2023-04-27T17:37:55.207Z,16.10
2023-04-27T17:40:23.036Z,16.20
2023-04-27T17:42:50.360Z,16.20
2023-04-27T17:45:17.494Z,16.30
2023-04-27T17:47:44.575Z,16.30
2023-04-27T17:50:11.712Z,16.30
2023-04-27T17:52:39.259Z,16.30
2023-04-27T17:55:06.320Z,16.30
2023-04-27T17:57:33.980Z,16.30
2023-04-27T18:00:01.415Z,16.30
2023-04-27T18:02:28.430Z,16.20
2023-04-27T18:04:55.424Z,16.20
2023-04-27T18:07:23.290Z,16.20
2023-04-27T18:09:50.740Z,16.20
2023-04-27T18:12:17.866Z,16.10
2023-04-27T18:14:44.969Z,16.10
2023-04-27T18:17:12.011Z,16.00
2023-04-27T18:19:39.240Z,15.90
2023-04-27T18:22:06.192Z,15.90
2023-04-27T18:24:33.263Z,15.90
2023-04-27T18:27:00.331Z,15.80
2023-04-27T18:29:27.483Z,15.80
2023-04-27T18:31:54.512Z,15.70
2023-04-27T18:34:21.459Z,15.70
2023-04-27T18:36:52.186Z,15.60
2023-04-27T18:39:19.441Z,15.60
2023-04-27T18:41:46.572Z,15.50
2023-04-27T18:44:13.878Z,15.30
2023-04-27T18:46:41.079Z,15.10
2023-04-27T18:49:12.480Z,15.00
2023-04-27T18:51:39.646Z,14.90
2023-04-27T18:56:54.074Z,14.80
2023-04-27T18:59:21.057Z,14.70
2023-04-27T19:01:48.069Z,14.60
2023-04-27T19:04:16.537Z,14.60
2023-04-27T19:06:43.692Z,14.60
2023-04-27T19:09:10.743Z,14.50
2023-04-27T19:11:37.963Z,14.40
2023-04-27T19:14:05.082Z,14.30
2023-04-27T19:16:32.110Z,14.30
2023-04-27T19:18:59.117Z,14.20
2023-04-27T19:21:27.049Z,14.20
2023-04-27T19:23:54.140Z,14.20
2023-04-27T19:26:21.644Z,14.20
2023-04-27T19:28:50.939Z,14.30
2023-04-27T19:31:17.928Z,14.20
2023-04-27T19:33:47.422Z,14.20
2023-04-27T19:36:21.948Z,14.20
2023-04-27T19:38:49.060Z,14.10
2023-04-27T19:41:16.010Z,14.10
2023-04-27T19:43:43.172Z,14.10
2023-04-27T19:46:10.253Z,14.10
2023-04-27T19:48:37.304Z,14.10
2023-04-27T19:51:08.123Z,14.20
2023-04-27T19:53:35.344Z,14.20
2023-04-27T19:56:02.906Z,14.20
2023-04-27T19:58:29.954Z,14.20
2023-04-27T20:00:57.036Z,14.20
2023-04-27T20:03:24.520Z,14.10
2023-04-27T20:05:52.079Z,14.10
2023-04-27T20:08:19.467Z,14.10
2023-04-27T20:10:46.506Z,14.10
2023-04-27T20:13:13.448Z,14.10
2023-04-27T20:15:40.494Z,14.10
2023-04-27T20:18:07.528Z,14.10
2023-04-27T20:20:34.530Z,14.10
2023-04-27T20:23:01.446Z,14.10
2023-04-27T20:25:29.229Z,14.10
2023-04-27T20:27:56.289Z,14.10
2023-04-27T20:30:23.295Z,14.10
2023-04-27T20:32:50.310Z,14.20
2023-04-27T20:35:17.316Z,14.50
2023-04-27T20:37:44.305Z,14.60
2023-04-27T20:40:14.567Z,14.70
2023-04-27T20:42:42.682Z,14.80
2023-04-27T20:45:11.679Z,14.90
2023-04-27T20:47:38.626Z,15.00
2023-04-27T20:50:06.612Z,15.00
2023-04-27T20:52:34.667Z,15.10
2023-04-27T20:55:02.507Z,15.10
2023-04-27T20:57:29.574Z,15.10
2023-04-27T20:59:56.507Z,15.20
2023-04-27T21:02:23.554Z,15.20
2023-04-27T21:04:51.022Z,15.30
2023-04-27T21:07:18.066Z,15.30
2023-04-27T21:09:45.012Z,15.30
2023-04-27T21:12:14.644Z,15.30
2023-04-27T21:14:42.013Z,15.30
2023-04-27T21:17:15.383Z,15.30
2023-04-27T21:19:42.572Z,15.20
2023-04-27T21:22:09.603Z,15.20
2023-04-27T21:24:36.834Z,15.20
2023-04-27T21:27:04.210Z,15.20
2023-04-27T21:29:31.520Z,15.20
2023-04-27T21:31:58.476Z,15.20
2023-04-27T21:34:25.548Z,15.20
2023-04-27T21:36:52.565Z,15.10
2023-04-27T21:39:19.566Z,15.00
2023-04-27T21:41:46.557Z,14.90
2023-04-27T21:44:13.699Z,14.90
2023-04-27T21:46:40.806Z,14.90
2023-04-27T21:49:08.040Z,14.90
2023-04-27T21:51:35.187Z,14.90
2023-04-27T21:54:02.681Z,14.90
2023-04-27T21:56:29.604Z,14.90
2023-04-27T21:58:56.595Z,14.90
2023-04-27T22:01:23.855Z,14.80
2023-04-27T22:03:51.076Z,14.80
2023-04-27T22:06:18.203Z,14.70
2023-04-27T22:08:45.180Z,14.70
2023-04-27T22:11:12.245Z,14.60
2023-04-27T22:13:39.275Z,14.60
2023-04-27T22:16:06.372Z,14.60
2023-04-27T22:18:33.780Z,14.60
2023-04-27T22:21:00.766Z,14.50
2023-04-27T22:23:27.786Z,14.50
2023-04-27T22:25:55.106Z,14.50
2023-04-27T22:28:22.139Z,14.40
2023-04-27T22:30:49.084Z,14.40
2023-04-27T22:33:16.897Z,14.40
2023-04-27T22:35:44.286Z,14.40
2023-04-27T22:38:11.525Z,14.40
2023-04-27T22:40:38.559Z,14.30
2023-04-27T22:43:05.632Z,14.40
2023-04-27T22:45:32.615Z,14.30
2023-04-27T22:47:59.615Z,14.30
2023-04-27T22:50:27.048Z,14.20
2023-04-27T22:52:54.037Z,14.00
2023-04-27T22:55:21.430Z,13.90
2023-04-27T22:57:50.260Z,13.70
2023-04-27T23:00:17.613Z,13.70
2023-04-27T23:02:44.771Z,13.50
2023-04-27T23:05:12.834Z,13.40
2023-04-27T23:07:41.382Z,13.30
2023-04-27T23:10:08.613Z,13.10
2023-04-27T23:12:35.653Z,13.10
2023-04-27T23:15:03.332Z,13.10
2023-04-27T23:17:33.757Z,13.00
2023-04-27T23:20:01.773Z,12.90
2023-04-27T23:22:28.850Z,12.80
2023-04-27T23:24:55.824Z,12.70
2023-04-27T23:27:25.071Z,12.70
2023-04-27T23:29:52.232Z,12.60
2023-04-27T23:32:19.311Z,12.60
2023-04-27T23:34:46.590Z,12.60
2023-04-27T23:37:14.031Z,12.60
2023-04-27T23:39:41.183Z,12.60
2023-04-27T23:42:08.135Z,12.60
2023-04-27T23:44:35.165Z,12.50
2023-04-27T23:47:02.085Z,12.50
2023-04-27T23:49:29.018Z,12.40
2023-04-27T23:51:56.165Z,12.40
2023-04-27T23:54:23.596Z,12.40
2023-04-27T23:56:51.325Z,12.40
2023-04-27T23:59:18.451Z,12.50
